sensor_id;sensor_type;location;lat;lon;timestamp;P1;durP1;ratioP1;P2;durP2;ratioP2
62788;SDS011;66401;42.016;21.454;2022-12-29T00:01:32;43.50;;;21.47;;
62788;SDS011;66401;42.016;21.454;2022-12-29T00:03:58;34.17;;;20.27;;
62788;SDS011;66401;42.016;21.454;2022-12-29T00:06:24;32.33;;;19.67;;
62788;SDS011;66401;42.016;21.454;2022-12-29T00:08:50;40.43;;;20.27;;
62788;SDS011;66401;42.016;21.454;2022-12-29T00:11:20;37.63;;;19.23;;
62788;SDS011;66401;42.016;21.454;2022-12-29T00:13:48;33.13;;;18.50;;
62788;SDS011;66401;42.016;21.454;2022-12-29T00:16:33;32.60;;;18.43;;
62788;SDS011;66401;42.016;21.454;2022-12-29T00:19:00;27.63;;;17.73;;
62788;SDS011;66401;42.016;21.454;2022-12-29T00:21:26;32.43;;;20.13;;
62788;SDS011;66401;42.016;21.454;2022-12-29T00:29:46;36.60;;;19.57;;
62788;SDS011;66401;42.016;21.454;2022-12-29T00:32:30;35.47;;;19.83;;
62788;SDS011;66401;42.016;21.454;2022-12-29T00:35:19;37.20;;;20.23;;
62788;SDS011;66401;42.016;21.454;2022-12-29T00:37:48;35.50;;;19.83;;
62788;SDS011;66401;42.016;21.454;2022-12-29T00:40:33;33.33;;;19.80;;
62788;SDS011;66401;42.016;21.454;2022-12-29T00:43:17;32.97;;;19.37;;
62788;SDS011;66401;42.016;21.454;2022-12-29T00:46:01;33.13;;;21.03;;
62788;SDS011;66401;42.016;21.454;2022-12-29T00:48:27;32.27;;;19.43;;
62788;SDS011;66401;42.016;21.454;2022-12-29T00:51:11;36.97;;;20.80;;
62788;SDS011;66401;42.016;21.454;2022-12-29T00:53:36;42.37;;;23.40;;
62788;SDS011;66401;42.016;21.454;2022-12-29T00:56:02;34.53;;;21.63;;
62788;SDS011;66401;42.016;21.454;2022-12-29T00:58:28;37.23;;;21.43;;
62788;SDS011;66401;42.016;21.454;2022-12-29T01:01:01;37.10;;;20.97;;
62788;SDS011;66401;42.016;21.454;2022-12-29T01:03:30;40.90;;;21.80;;
62788;SDS011;66401;42.016;21.454;2022-12-29T01:05:59;36.57;;;22.77;;
62788;SDS011;66401;42.016;21.454;2022-12-29T01:08:29;42.23;;;22.53;;
62788;SDS011;66401;42.016;21.454;2022-12-29T01:10:59;42.97;;;23.47;;
62788;SDS011;66401;42.016;21.454;2022-12-29T01:13:25;44.63;;;23.20;;
62788;SDS011;66401;42.016;21.454;2022-12-29T01:15:51;50.97;;;24.90;;
62788;SDS011;66401;42.016;21.454;2022-12-29T01:18:18;43.90;;;23.23;;
62788;SDS011;66401;42.016;21.454;2022-12-29T01:20:44;42.47;;;23.60;;
62788;SDS011;66401;42.016;21.454;2022-12-29T01:23:10;48.10;;;25.07;;
62788;SDS011;66401;42.016;21.454;2022-12-29T01:25:35;45.57;;;24.67;;
62788;SDS011;66401;42.016;21.454;2022-12-29T01:28:01;46.00;;;23.97;;
62788;SDS011;66401;42.016;21.454;2022-12-29T01:30:26;42.40;;;22.30;;
62788;SDS011;66401;42.016;21.454;2022-12-29T01:32:52;38.70;;;21.10;;
62788;SDS011;66401;42.016;21.454;2022-12-29T01:35:17;40.57;;;21.03;;
62788;SDS011;66401;42.016;21.454;2022-12-29T01:37:43;36.80;;;23.67;;
62788;SDS011;66401;42.016;21.454;2022-12-29T01:40:09;39.67;;;21.67;;
62788;SDS011;66401;42.016;21.454;2022-12-29T01:42:35;30.83;;;18.87;;
62788;SDS011;66401;42.016;21.454;2022-12-29T01:45:12;35.97;;;19.90;;
62788;SDS011;66401;42.016;21.454;2022-12-29T01:50:29;35.13;;;19.17;;
62788;SDS011;66401;42.016;21.454;2022-12-29T01:53:11;27.33;;;17.47;;
62788;SDS011;66401;42.016;21.454;2022-12-29T01:55:56;35.20;;;20.57;;
62788;SDS011;66401;42.016;21.454;2022-12-29T01:58:28;41.47;;;24.77;;
62788;SDS011;66401;42.016;21.454;2022-12-29T02:00:56;52.00;;;25.77;;
62788;SDS011;66401;42.016;21.454;2022-12-29T02:03:22;45.63;;;25.93;;
62788;SDS011;66401;42.016;21.454;2022-12-29T02:06:02;40.77;;;25.43;;
62788;SDS011;66401;42.016;21.454;2022-12-29T02:08:35;52.60;;;27.00;;
62788;SDS011;66401;42.016;21.454;2022-12-29T02:11:04;45.30;;;28.23;;
62788;SDS011;66401;42.016;21.454;2022-12-29T02:13:30;51.20;;;27.70;;
62788;SDS011;66401;42.016;21.454;2022-12-29T02:16:06;49.03;;;28.17;;
62788;SDS011;66401;42.016;21.454;2022-12-29T02:21:32;51.83;;;28.50;;
62788;SDS011;66401;42.016;21.454;2022-12-29T02:27:10;45.73;;;25.80;;
62788;SDS011;66401;42.016;21.454;2022-12-29T02:35:39;46.97;;;25.67;;
62788;SDS011;66401;42.016;21.454;2022-12-29T02:41:06;42.80;;;24.47;;
62788;SDS011;66401;42.016;21.454;2022-12-29T02:46:34;49.50;;;23.90;;
62788;SDS011;66401;42.016;21.454;2022-12-29T02:49:04;44.23;;;25.70;;
62788;SDS011;66401;42.016;21.454;2022-12-29T02:51:59;47.57;;;25.50;;
62788;SDS011;66401;42.016;21.454;2022-12-29T02:54:29;39.00;;;22.47;;
62788;SDS011;66401;42.016;21.454;2022-12-29T02:59:47;45.00;;;24.67;;
62788;SDS011;66401;42.016;21.454;2022-12-29T03:13:31;47.87;;;25.50;;
62788;SDS011;66401;42.016;21.454;2022-12-29T03:16:20;40.47;;;24.97;;
62788;SDS011;66401;42.016;21.454;2022-12-29T03:21:27;47.13;;;25.27;;
62788;SDS011;66401;42.016;21.454;2022-12-29T03:24:15;51.50;;;25.13;;
62788;SDS011;66401;42.016;21.454;2022-12-29T03:26:43;46.83;;;23.83;;
62788;SDS011;66401;42.016;21.454;2022-12-29T03:29:11;43.60;;;24.00;;
62788;SDS011;66401;42.016;21.454;2022-12-29T03:31:38;42.70;;;23.90;;
62788;SDS011;66401;42.016;21.454;2022-12-29T03:34:06;43.00;;;25.67;;
62788;SDS011;66401;42.016;21.454;2022-12-29T03:36:36;51.23;;;25.50;;
62788;SDS011;66401;42.016;21.454;2022-12-29T03:39:10;42.00;;;23.07;;
62788;SDS011;66401;42.016;21.454;2022-12-29T03:41:43;43.93;;;24.20;;
62788;SDS011;66401;42.016;21.454;2022-12-29T03:44:11;39.23;;;22.97;;
62788;SDS011;66401;42.016;21.454;2022-12-29T03:46:38;47.47;;;24.80;;
62788;SDS011;66401;42.016;21.454;2022-12-29T03:49:03;45.53;;;22.70;;
62788;SDS011;66401;42.016;21.454;2022-12-29T03:51:29;41.43;;;23.60;;
62788;SDS011;66401;42.016;21.454;2022-12-29T03:53:54;53.07;;;27.00;;
62788;SDS011;66401;42.016;21.454;2022-12-29T03:56:20;39.63;;;23.90;;
62788;SDS011;66401;42.016;21.454;2022-12-29T03:58:46;44.47;;;24.67;;
62788;SDS011;66401;42.016;21.454;2022-12-29T04:01:11;49.67;;;24.83;;
62788;SDS011;66401;42.016;21.454;2022-12-29T04:03:37;42.63;;;24.33;;
62788;SDS011;66401;42.016;21.454;2022-12-29T04:06:02;46.37;;;24.30;;
62788;SDS011;66401;42.016;21.454;2022-12-29T04:08:28;43.03;;;22.70;;
62788;SDS011;66401;42.016;21.454;2022-12-29T04:10:53;41.53;;;23.93;;
62788;SDS011;66401;42.016;21.454;2022-12-29T04:13:18;38.47;;;22.30;;
62788;SDS011;66401;42.016;21.454;2022-12-29T04:15:44;37.70;;;23.23;;
62788;SDS011;66401;42.016;21.454;2022-12-29T04:18:10;39.10;;;22.60;;
62788;SDS011;66401;42.016;21.454;2022-12-29T04:20:36;46.13;;;22.30;;
62788;SDS011;66401;42.016;21.454;2022-12-29T04:23:20;37.33;;;21.30;;
62788;SDS011;66401;42.016;21.454;2022-12-29T04:25:46;39.27;;;23.10;;
62788;SDS011;66401;42.016;21.454;2022-12-29T04:28:15;42.13;;;23.83;;
62788;SDS011;66401;42.016;21.454;2022-12-29T04:30:42;43.87;;;25.33;;
62788;SDS011;66401;42.016;21.454;2022-12-29T04:33:08;48.27;;;26.73;;
62788;SDS011;66401;42.016;21.454;2022-12-29T04:35:34;49.40;;;26.87;;
62788;SDS011;66401;42.016;21.454;2022-12-29T04:38:00;51.40;;;27.87;;
62788;SDS011;66401;42.016;21.454;2022-12-29T04:40:25;35.97;;;22.57;;
62788;SDS011;66401;42.016;21.454;2022-12-29T04:42:51;38.57;;;21.63;;
62788;SDS011;66401;42.016;21.454;2022-12-29T04:45:16;36.93;;;21.33;;
62788;SDS011;66401;42.016;21.454;2022-12-29T04:47:42;39.17;;;21.93;;
62788;SDS011;66401;42.016;21.454;2022-12-29T04:50:08;35.17;;;19.33;;
62788;SDS011;66401;42.016;21.454;2022-12-29T04:52:33;26.93;;;17.00;;
62788;SDS011;66401;42.016;21.454;2022-12-29T04:54:59;34.77;;;18.23;;
62788;SDS011;66401;42.016;21.454;2022-12-29T04:57:25;34.23;;;18.27;;
62788;SDS011;66401;42.016;21.454;2022-12-29T04:59:51;35.13;;;18.77;;
62788;SDS011;66401;42.016;21.454;2022-12-29T05:02:16;32.13;;;18.20;;
62788;SDS011;66401;42.016;21.454;2022-12-29T05:04:42;39.27;;;19.00;;
62788;SDS011;66401;42.016;21.454;2022-12-29T05:07:08;29.80;;;17.73;;
62788;SDS011;66401;42.016;21.454;2022-12-29T05:09:34;29.77;;;17.20;;
62788;SDS011;66401;42.016;21.454;2022-12-29T05:12:00;28.87;;;18.10;;
62788;SDS011;66401;42.016;21.454;2022-12-29T05:14:25;29.67;;;18.03;;
62788;SDS011;66401;42.016;21.454;2022-12-29T05:16:51;30.73;;;18.53;;
62788;SDS011;66401;42.016;21.454;2022-12-29T05:19:17;32.67;;;19.30;;
62788;SDS011;66401;42.016;21.454;2022-12-29T05:21:42;36.63;;;19.97;;
62788;SDS011;66401;42.016;21.454;2022-12-29T05:24:08;37.33;;;20.33;;
62788;SDS011;66401;42.016;21.454;2022-12-29T05:26:34;39.97;;;20.27;;
62788;SDS011;66401;42.016;21.454;2022-12-29T05:28:59;33.53;;;19.90;;
62788;SDS011;66401;42.016;21.454;2022-12-29T05:31:25;30.87;;;18.90;;
62788;SDS011;66401;42.016;21.454;2022-12-29T05:33:51;34.23;;;20.13;;
62788;SDS011;66401;42.016;21.454;2022-12-29T05:36:16;32.97;;;19.47;;
62788;SDS011;66401;42.016;21.454;2022-12-29T05:38:42;37.27;;;19.93;;
62788;SDS011;66401;42.016;21.454;2022-12-29T05:41:07;34.30;;;18.97;;
62788;SDS011;66401;42.016;21.454;2022-12-29T05:43:33;37.97;;;20.70;;
62788;SDS011;66401;42.016;21.454;2022-12-29T05:45:58;32.63;;;19.43;;
62788;SDS011;66401;42.016;21.454;2022-12-29T05:48:24;38.23;;;20.83;;
62788;SDS011;66401;42.016;21.454;2022-12-29T05:50:50;43.70;;;22.67;;
62788;SDS011;66401;42.016;21.454;2022-12-29T05:53:16;33.77;;;21.03;;
62788;SDS011;66401;42.016;21.454;2022-12-29T05:55:42;40.37;;;21.10;;
62788;SDS011;66401;42.016;21.454;2022-12-29T05:58:08;35.63;;;21.83;;
62788;SDS011;66401;42.016;21.454;2022-12-29T06:00:34;32.63;;;19.97;;
62788;SDS011;66401;42.016;21.454;2022-12-29T06:02:59;35.27;;;20.27;;
62788;SDS011;66401;42.016;21.454;2022-12-29T06:05:25;35.93;;;21.77;;
62788;SDS011;66401;42.016;21.454;2022-12-29T06:07:50;36.07;;;21.57;;
62788;SDS011;66401;42.016;21.454;2022-12-29T06:10:16;36.80;;;20.87;;
62788;SDS011;66401;42.016;21.454;2022-12-29T06:12:42;34.50;;;20.67;;
62788;SDS011;66401;42.016;21.454;2022-12-29T06:15:08;35.07;;;19.70;;
62788;SDS011;66401;42.016;21.454;2022-12-29T06:17:34;33.03;;;20.10;;
62788;SDS011;66401;42.016;21.454;2022-12-29T06:19:59;37.87;;;20.07;;
62788;SDS011;66401;42.016;21.454;2022-12-29T06:22:25;38.93;;;21.47;;
62788;SDS011;66401;42.016;21.454;2022-12-29T06:24:50;36.60;;;20.47;;
62788;SDS011;66401;42.016;21.454;2022-12-29T06:27:16;40.30;;;22.07;;
62788;SDS011;66401;42.016;21.454;2022-12-29T06:29:41;35.60;;;20.53;;
62788;SDS011;66401;42.016;21.454;2022-12-29T06:32:07;36.13;;;20.70;;
62788;SDS011;66401;42.016;21.454;2022-12-29T06:34:33;36.17;;;19.77;;
62788;SDS011;66401;42.016;21.454;2022-12-29T06:36:59;36.40;;;20.87;;
62788;SDS011;66401;42.016;21.454;2022-12-29T06:39:24;36.57;;;21.60;;
62788;SDS011;66401;42.016;21.454;2022-12-29T06:41:53;37.33;;;21.30;;
62788;SDS011;66401;42.016;21.454;2022-12-29T06:44:20;34.60;;;19.47;;
62788;SDS011;66401;42.016;21.454;2022-12-29T06:46:46;39.70;;;20.33;;
62788;SDS011;66401;42.016;21.454;2022-12-29T06:49:12;38.57;;;22.77;;
62788;SDS011;66401;42.016;21.454;2022-12-29T06:51:38;46.50;;;22.00;;
62788;SDS011;66401;42.016;21.454;2022-12-29T06:54:03;32.07;;;21.43;;
62788;SDS011;66401;42.016;21.454;2022-12-29T06:56:29;41.23;;;21.73;;
62788;SDS011;66401;42.016;21.454;2022-12-29T06:58:54;31.43;;;21.17;;
62788;SDS011;66401;42.016;21.454;2022-12-29T07:01:20;34.50;;;21.47;;
62788;SDS011;66401;42.016;21.454;2022-12-29T07:03:45;39.23;;;22.43;;
62788;SDS011;66401;42.016;21.454;2022-12-29T07:06:11;31.47;;;21.13;;
62788;SDS011;66401;42.016;21.454;2022-12-29T07:08:36;32.97;;;20.13;;
62788;SDS011;66401;42.016;21.454;2022-12-29T07:11:03;35.27;;;20.10;;
62788;SDS011;66401;42.016;21.454;2022-12-29T07:13:29;39.60;;;23.40;;
62788;SDS011;66401;42.016;21.454;2022-12-29T07:15:54;38.90;;;22.67;;
62788;SDS011;66401;42.016;21.454;2022-12-29T07:18:20;40.73;;;22.00;;
62788;SDS011;66401;42.016;21.454;2022-12-29T07:20:45;44.77;;;23.97;;
62788;SDS011;66401;42.016;21.454;2022-12-29T07:23:12;43.00;;;25.83;;
62788;SDS011;66401;42.016;21.454;2022-12-29T07:25:37;37.73;;;22.30;;
62788;SDS011;66401;42.016;21.454;2022-12-29T07:28:05;40.30;;;23.30;;
62788;SDS011;66401;42.016;21.454;2022-12-29T07:30:30;38.93;;;23.60;;
62788;SDS011;66401;42.016;21.454;2022-12-29T07:32:56;42.23;;;22.33;;
62788;SDS011;66401;42.016;21.454;2022-12-29T07:35:22;40.53;;;23.30;;
62788;SDS011;66401;42.016;21.454;2022-12-29T07:37:47;48.10;;;24.73;;
62788;SDS011;66401;42.016;21.454;2022-12-29T07:40:13;56.67;;;28.90;;
62788;SDS011;66401;42.016;21.454;2022-12-29T07:42:39;52.73;;;26.27;;
62788;SDS011;66401;42.016;21.454;2022-12-29T07:45:04;48.40;;;27.17;;
62788;SDS011;66401;42.016;21.454;2022-12-29T07:47:30;52.50;;;28.53;;
62788;SDS011;66401;42.016;21.454;2022-12-29T07:49:56;48.67;;;26.87;;
62788;SDS011;66401;42.016;21.454;2022-12-29T07:52:21;47.07;;;27.50;;
62788;SDS011;66401;42.016;21.454;2022-12-29T07:54:47;42.83;;;24.97;;
62788;SDS011;66401;42.016;21.454;2022-12-29T07:57:12;43.17;;;25.23;;
62788;SDS011;66401;42.016;21.454;2022-12-29T07:59:38;39.93;;;24.70;;
62788;SDS011;66401;42.016;21.454;2022-12-29T08:02:04;44.63;;;25.67;;
62788;SDS011;66401;42.016;21.454;2022-12-29T08:04:29;40.83;;;24.50;;
62788;SDS011;66401;42.016;21.454;2022-12-29T08:06:54;44.67;;;25.27;;
62788;SDS011;66401;42.016;21.454;2022-12-29T08:09:20;42.13;;;24.80;;
62788;SDS011;66401;42.016;21.454;2022-12-29T08:11:46;40.33;;;23.10;;
62788;SDS011;66401;42.016;21.454;2022-12-29T08:14:11;43.23;;;25.73;;
62788;SDS011;66401;42.016;21.454;2022-12-29T08:16:37;41.07;;;24.77;;
62788;SDS011;66401;42.016;21.454;2022-12-29T08:19:02;42.63;;;25.63;;
62788;SDS011;66401;42.016;21.454;2022-12-29T08:21:30;42.03;;;26.47;;
62788;SDS011;66401;42.016;21.454;2022-12-29T08:23:55;43.63;;;27.03;;
62788;SDS011;66401;42.016;21.454;2022-12-29T08:26:22;41.20;;;25.33;;
62788;SDS011;66401;42.016;21.454;2022-12-29T08:28:47;39.67;;;26.80;;
62788;SDS011;66401;42.016;21.454;2022-12-29T08:31:13;40.63;;;28.43;;
62788;SDS011;66401;42.016;21.454;2022-12-29T08:33:39;44.03;;;29.20;;
62788;SDS011;66401;42.016;21.454;2022-12-29T08:36:05;45.60;;;29.57;;
62788;SDS011;66401;42.016;21.454;2022-12-29T08:38:32;49.37;;;31.47;;
62788;SDS011;66401;42.016;21.454;2022-12-29T08:40:57;48.23;;;30.67;;
62788;SDS011;66401;42.016;21.454;2022-12-29T08:43:23;47.03;;;31.50;;
62788;SDS011;66401;42.016;21.454;2022-12-29T08:45:49;49.47;;;32.93;;
62788;SDS011;66401;42.016;21.454;2022-12-29T08:48:15;50.27;;;33.93;;
62788;SDS011;66401;42.016;21.454;2022-12-29T08:50:44;48.33;;;31.60;;
62788;SDS011;66401;42.016;21.454;2022-12-29T08:53:10;48.80;;;32.07;;
62788;SDS011;66401;42.016;21.454;2022-12-29T08:55:36;53.00;;;34.10;;
62788;SDS011;66401;42.016;21.454;2022-12-29T08:58:01;49.33;;;35.77;;
62788;SDS011;66401;42.016;21.454;2022-12-29T09:00:27;52.10;;;35.27;;
62788;SDS011;66401;42.016;21.454;2022-12-29T09:02:52;48.97;;;35.03;;
62788;SDS011;66401;42.016;21.454;2022-12-29T09:05:18;55.60;;;38.30;;
62788;SDS011;66401;42.016;21.454;2022-12-29T09:07:44;53.47;;;38.77;;
62788;SDS011;66401;42.016;21.454;2022-12-29T09:10:10;54.63;;;39.50;;
62788;SDS011;66401;42.016;21.454;2022-12-29T09:12:35;55.40;;;38.03;;
62788;SDS011;66401;42.016;21.454;2022-12-29T09:15:02;57.43;;;37.47;;
62788;SDS011;66401;42.016;21.454;2022-12-29T09:17:28;51.90;;;37.20;;
62788;SDS011;66401;42.016;21.454;2022-12-29T09:20:07;55.77;;;36.67;;
62788;SDS011;66401;42.016;21.454;2022-12-29T09:22:33;53.63;;;37.63;;
62788;SDS011;66401;42.016;21.454;2022-12-29T09:24:59;57.23;;;38.47;;
62788;SDS011;66401;42.016;21.454;2022-12-29T09:27:25;59.83;;;40.90;;
62788;SDS011;66401;42.016;21.454;2022-12-29T09:29:50;59.50;;;40.00;;
62788;SDS011;66401;42.016;21.454;2022-12-29T09:32:16;56.97;;;39.40;;
62788;SDS011;66401;42.016;21.454;2022-12-29T09:34:41;50.57;;;34.97;;
62788;SDS011;66401;42.016;21.454;2022-12-29T09:37:07;44.73;;;33.23;;
62788;SDS011;66401;42.016;21.454;2022-12-29T09:39:32;51.10;;;33.43;;
62788;SDS011;66401;42.016;21.454;2022-12-29T09:42:04;47.13;;;34.17;;
62788;SDS011;66401;42.016;21.454;2022-12-29T09:47:18;46.83;;;33.63;;
62788;SDS011;66401;42.016;21.454;2022-12-29T09:49:56;42.63;;;29.73;;
62788;SDS011;66401;42.016;21.454;2022-12-29T09:52:35;45.80;;;30.53;;
62788;SDS011;66401;42.016;21.454;2022-12-29T09:55:10;39.87;;;29.80;;
62788;SDS011;66401;42.016;21.454;2022-12-29T10:00:18;44.90;;;32.47;;
62788;SDS011;66401;42.016;21.454;2022-12-29T10:02:46;47.10;;;31.73;;
62788;SDS011;66401;42.016;21.454;2022-12-29T10:07:45;45.60;;;30.93;;
62788;SDS011;66401;42.016;21.454;2022-12-29T10:10:38;47.33;;;30.37;;
62788;SDS011;66401;42.016;21.454;2022-12-29T10:13:25;49.17;;;32.20;;
62788;SDS011;66401;42.016;21.454;2022-12-29T10:24:02;49.23;;;31.57;;
62788;SDS011;66401;42.016;21.454;2022-12-29T10:26:31;61.97;;;34.70;;
62788;SDS011;66401;42.016;21.454;2022-12-29T10:31:40;75.57;;;35.73;;
62788;SDS011;66401;42.016;21.454;2022-12-29T10:37:50;58.73;;;32.53;;
62788;SDS011;66401;42.016;21.454;2022-12-29T10:39:52;51.27;;;29.03;;
62788;SDS011;66401;42.016;21.454;2022-12-29T10:42:29;53.17;;;29.30;;
62788;SDS011;66401;42.016;21.454;2022-12-29T10:45:02;46.50;;;28.23;;
62788;SDS011;66401;42.016;21.454;2022-12-29T10:47:33;47.53;;;29.37;;
62788;SDS011;66401;42.016;21.454;2022-12-29T10:50:04;43.33;;;28.67;;
62788;SDS011;66401;42.016;21.454;2022-12-29T10:52:30;44.90;;;27.90;;
62788;SDS011;66401;42.016;21.454;2022-12-29T10:55:02;47.80;;;27.40;;
62788;SDS011;66401;42.016;21.454;2022-12-29T10:57:41;46.13;;;29.87;;
62788;SDS011;66401;42.016;21.454;2022-12-29T11:00:19;42.83;;;27.73;;
62788;SDS011;66401;42.016;21.454;2022-12-29T11:08:35;45.47;;;28.47;;
62788;SDS011;66401;42.016;21.454;2022-12-29T11:11:05;44.40;;;27.77;;
62788;SDS011;66401;42.016;21.454;2022-12-29T11:13:49;45.93;;;28.30;;
62788;SDS011;66401;42.016;21.454;2022-12-29T11:16:26;48.97;;;30.07;;
62788;SDS011;66401;42.016;21.454;2022-12-29T11:18:55;46.40;;;29.80;;
62788;SDS011;66401;42.016;21.454;2022-12-29T11:21:30;50.77;;;30.93;;
62788;SDS011;66401;42.016;21.454;2022-12-29T11:24:00;44.63;;;27.70;;
62788;SDS011;66401;42.016;21.454;2022-12-29T11:26:28;40.03;;;26.77;;
62788;SDS011;66401;42.016;21.454;2022-12-29T11:31:42;47.77;;;28.87;;
62788;SDS011;66401;42.016;21.454;2022-12-29T11:34:08;44.13;;;28.87;;
62788;SDS011;66401;42.016;21.454;2022-12-29T11:36:42;44.73;;;28.67;;
62788;SDS011;66401;42.016;21.454;2022-12-29T11:39:16;48.23;;;29.20;;
62788;SDS011;66401;42.016;21.454;2022-12-29T11:41:52;45.33;;;29.27;;
62788;SDS011;66401;42.016;21.454;2022-12-29T11:44:19;47.40;;;30.27;;
62788;SDS011;66401;42.016;21.454;2022-12-29T11:46:46;47.23;;;30.27;;
62788;SDS011;66401;42.016;21.454;2022-12-29T11:49:18;44.00;;;26.60;;
62788;SDS011;66401;42.016;21.454;2022-12-29T11:51:49;50.20;;;29.70;;
62788;SDS011;66401;42.016;21.454;2022-12-29T11:54:27;45.57;;;27.77;;
62788;SDS011;66401;42.016;21.454;2022-12-29T11:57:14;44.80;;;26.50;;
62788;SDS011;66401;42.016;21.454;2022-12-29T11:59:51;37.37;;;25.97;;
62788;SDS011;66401;42.016;21.454;2022-12-29T12:04:46;37.70;;;24.97;;
62788;SDS011;66401;42.016;21.454;2022-12-29T12:10:17;38.57;;;25.37;;
62788;SDS011;66401;42.016;21.454;2022-12-29T12:15:36;31.63;;;24.03;;
62788;SDS011;66401;42.016;21.454;2022-12-29T12:18:31;34.70;;;24.07;;
62788;SDS011;66401;42.016;21.454;2022-12-29T12:20:58;38.50;;;23.33;;
62788;SDS011;66401;42.016;21.454;2022-12-29T12:29:25;31.13;;;20.10;;
62788;SDS011;66401;42.016;21.454;2022-12-29T12:32:06;34.37;;;20.07;;
62788;SDS011;66401;42.016;21.454;2022-12-29T12:34:38;21.63;;;14.57;;
62788;SDS011;66401;42.016;21.454;2022-12-29T12:42:58;13.83;;;11.03;;
62788;SDS011;66401;42.016;21.454;2022-12-29T13:10:22;18.93;;;12.63;;
62788;SDS011;66401;42.016;21.454;2022-12-29T13:13:05;16.03;;;11.43;;
62788;SDS011;66401;42.016;21.454;2022-12-29T13:18:55;13.07;;;10.50;;
62788;SDS011;66401;42.016;21.454;2022-12-29T13:21:32;15.63;;;10.50;;
62788;SDS011;66401;42.016;21.454;2022-12-29T13:35:01;15.20;;;10.17;;
62788;SDS011;66401;42.016;21.454;2022-12-29T13:37:32;14.47;;;10.23;;
62788;SDS011;66401;42.016;21.454;2022-12-29T13:40:13;16.73;;;10.47;;
62788;SDS011;66401;42.016;21.454;2022-12-29T13:42:42;13.90;;;9.27;;
62788;SDS011;66401;42.016;21.454;2022-12-29T13:45:18;11.23;;;8.90;;
62788;SDS011;66401;42.016;21.454;2022-12-29T13:50:28;12.83;;;8.73;;
62788;SDS011;66401;42.016;21.454;2022-12-29T14:01:08;12.07;;;8.33;;
62788;SDS011;66401;42.016;21.454;2022-12-29T14:03:52;10.90;;;9.13;;
62788;SDS011;66401;42.016;21.454;2022-12-29T14:09:34;15.80;;;9.70;;
62788;SDS011;66401;42.016;21.454;2022-12-29T14:17:36;11.87;;;9.20;;
62788;SDS011;66401;42.016;21.454;2022-12-29T14:20:04;11.80;;;8.53;;
62788;SDS011;66401;42.016;21.454;2022-12-29T14:22:54;13.83;;;8.63;;
62788;SDS011;66401;42.016;21.454;2022-12-29T14:28:25;13.43;;;9.03;;
62788;SDS011;66401;42.016;21.454;2022-12-29T14:30:56;13.73;;;9.33;;
62788;SDS011;66401;42.016;21.454;2022-12-29T14:33:23;16.53;;;9.43;;
62788;SDS011;66401;42.016;21.454;2022-12-29T14:35:51;15.57;;;10.63;;
62788;SDS011;66401;42.016;21.454;2022-12-29T14:38:20;14.27;;;9.17;;
62788;SDS011;66401;42.016;21.454;2022-12-29T14:40:47;13.20;;;9.37;;
62788;SDS011;66401;42.016;21.454;2022-12-29T14:43:17;15.13;;;9.80;;
62788;SDS011;66401;42.016;21.454;2022-12-29T14:46:00;16.80;;;9.90;;
62788;SDS011;66401;42.016;21.454;2022-12-29T14:48:32;16.83;;;9.97;;
62788;SDS011;66401;42.016;21.454;2022-12-29T14:51:27;18.67;;;10.27;;
62788;SDS011;66401;42.016;21.454;2022-12-29T14:53:54;16.47;;;10.10;;
62788;SDS011;66401;42.016;21.454;2022-12-29T14:56:23;15.17;;;9.70;;
62788;SDS011;66401;42.016;21.454;2022-12-29T14:59:09;15.30;;;10.10;;
62788;SDS011;66401;42.016;21.454;2022-12-29T15:01:39;14.83;;;10.53;;
62788;SDS011;66401;42.016;21.454;2022-12-29T15:04:20;16.53;;;11.27;;
62788;SDS011;66401;42.016;21.454;2022-12-29T15:07:07;17.93;;;10.63;;
62788;SDS011;66401;42.016;21.454;2022-12-29T15:09:42;17.70;;;10.93;;
62788;SDS011;66401;42.016;21.454;2022-12-29T15:12:19;18.13;;;10.60;;
62788;SDS011;66401;42.016;21.454;2022-12-29T15:14:55;16.07;;;10.57;;
62788;SDS011;66401;42.016;21.454;2022-12-29T15:17:24;17.27;;;10.57;;
62788;SDS011;66401;42.016;21.454;2022-12-29T15:19:54;15.90;;;10.13;;
62788;SDS011;66401;42.016;21.454;2022-12-29T15:22:21;19.27;;;10.73;;
62788;SDS011;66401;42.016;21.454;2022-12-29T15:24:49;15.13;;;10.47;;
62788;SDS011;66401;42.016;21.454;2022-12-29T15:27:19;20.60;;;11.40;;
62788;SDS011;66401;42.016;21.454;2022-12-29T15:29:57;16.53;;;11.93;;
62788;SDS011;66401;42.016;21.454;2022-12-29T15:32:26;19.00;;;10.83;;
62788;SDS011;66401;42.016;21.454;2022-12-29T15:34:54;16.33;;;9.90;;
62788;SDS011;66401;42.016;21.454;2022-12-29T15:37:32;17.87;;;10.67;;
62788;SDS011;66401;42.016;21.454;2022-12-29T15:40:00;20.53;;;11.47;;
62788;SDS011;66401;42.016;21.454;2022-12-29T15:45:35;23.80;;;14.00;;
62788;SDS011;66401;42.016;21.454;2022-12-29T15:48:01;27.07;;;16.17;;
62788;SDS011;66401;42.016;21.454;2022-12-29T15:50:29;32.63;;;18.73;;
62788;SDS011;66401;42.016;21.454;2022-12-29T15:52:59;33.97;;;20.67;;
62788;SDS011;66401;42.016;21.454;2022-12-29T15:58:00;48.93;;;27.67;;
62788;SDS011;66401;42.016;21.454;2022-12-29T16:00:29;55.40;;;30.03;;
62788;SDS011;66401;42.016;21.454;2022-12-29T16:03:02;57.60;;;29.73;;
62788;SDS011;66401;42.016;21.454;2022-12-29T16:05:36;54.83;;;31.97;;
62788;SDS011;66401;42.016;21.454;2022-12-29T16:08:20;57.10;;;29.57;;
62788;SDS011;66401;42.016;21.454;2022-12-29T16:10:50;54.47;;;27.43;;
62788;SDS011;66401;42.016;21.454;2022-12-29T16:13:31;47.47;;;26.07;;
62788;SDS011;66401;42.016;21.454;2022-12-29T16:16:07;50.17;;;25.83;;
62788;SDS011;66401;42.016;21.454;2022-12-29T16:18:39;54.50;;;29.90;;
62788;SDS011;66401;42.016;21.454;2022-12-29T16:21:05;58.23;;;31.00;;
62788;SDS011;66401;42.016;21.454;2022-12-29T16:23:42;55.33;;;30.33;;
62788;SDS011;66401;42.016;21.454;2022-12-29T16:26:15;59.10;;;31.13;;
62788;SDS011;66401;42.016;21.454;2022-12-29T16:28:43;59.93;;;30.50;;
62788;SDS011;66401;42.016;21.454;2022-12-29T16:34:24;51.33;;;28.27;;
62788;SDS011;66401;42.016;21.454;2022-12-29T16:36:54;61.93;;;32.27;;
62788;SDS011;66401;42.016;21.454;2022-12-29T16:39:36;52.47;;;29.97;;
62788;SDS011;66401;42.016;21.454;2022-12-29T16:45:07;53.80;;;28.60;;
62788;SDS011;66401;42.016;21.454;2022-12-29T16:50:32;40.27;;;23.57;;
62788;SDS011;66401;42.016;21.454;2022-12-29T16:53:00;42.90;;;23.30;;
62788;SDS011;66401;42.016;21.454;2022-12-29T16:55:28;43.37;;;23.97;;
62788;SDS011;66401;42.016;21.454;2022-12-29T16:57:54;41.07;;;24.17;;
62788;SDS011;66401;42.016;21.454;2022-12-29T17:00:29;36.50;;;23.50;;
62788;SDS011;66401;42.016;21.454;2022-12-29T17:02:59;53.20;;;26.73;;
62788;SDS011;66401;42.016;21.454;2022-12-29T17:05:26;49.23;;;25.80;;
62788;SDS011;66401;42.016;21.454;2022-12-29T17:07:52;45.87;;;25.30;;
62788;SDS011;66401;42.016;21.454;2022-12-29T17:10:17;54.03;;;29.63;;
62788;SDS011;66401;42.016;21.454;2022-12-29T17:12:44;55.10;;;29.97;;